createdAt,value
2023-04-27T00:01:00.386Z,78.71
2023-04-27T00:03:27.392Z,79.92
2023-04-27T00:05:54.220Z,80.59
2023-04-27T00:08:20.830Z,78.58
2023-04-27T00:10:47.277Z,78.01
2023-04-27T00:13:13.710Z,77.27
2023-04-27T00:15:40.935Z,78.94
2023-04-27T00:18:07.475Z,79.38
2023-04-27T00:20:34.157Z,78.34
2023-04-27T00:23:00.659Z,77.72
2023-04-27T00:25:27.164Z,77.83
2023-04-27T00:27:53.670Z,78.86
2023-04-27T00:30:20.231Z,78.17
2023-04-27T00:32:46.752Z,78.06
2023-04-27T00:35:13.337Z,78.14
2023-04-27T00:37:39.834Z,78.03
2023-04-27T00:40:07.905Z,78.21
2023-04-27T00:42:34.982Z,78.16
2023-04-27T00:45:02.095Z,78.08
2023-04-27T00:47:29.772Z,77.55
2023-04-27T00:49:56.244Z,77.65
2023-04-27T00:52:22.774Z,77.49
2023-04-27T00:54:50.678Z,78.35
2023-04-27T00:57:17.236Z,78.12
2023-04-27T00:59:43.732Z,77.63
2023-04-27T01:02:11.133Z,78.05
2023-04-27T01:04:37.787Z,77.46
2023-04-27T01:07:04.443Z,77.44
2023-04-27T01:09:30.992Z,77.11
2023-04-27T01:11:58.365Z,77.32
2023-04-27T01:14:24.895Z,77.01
2023-04-27T01:16:52.013Z,77.00
2023-04-27T01:19:18.481Z,77.25
2023-04-27T01:21:44.949Z,76.70
2023-04-27T01:24:11.442Z,76.69
2023-04-27T01:26:37.927Z,76.38
2023-04-27T01:29:04.507Z,78.51
2023-04-27T01:31:31.259Z,79.03
2023-04-27T01:33:57.740Z,79.67
2023-04-27T01:36:24.266Z,79.15
2023-04-27T01:38:51.522Z,78.19
2023-04-27T01:41:18.021Z,79.45
2023-04-27T01:43:44.547Z,80.08
2023-04-27T01:46:12.260Z,81.51
2023-04-27T01:48:39.191Z,81.91
2023-04-27T01:51:05.833Z,81.32
2023-04-27T01:53:32.297Z,80.18
2023-04-27T01:56:01.681Z,79.44
2023-04-27T01:58:28.298Z,79.33
2023-04-27T02:00:54.775Z,79.82
2023-04-27T02:03:21.684Z,79.26
2023-04-27T02:05:48.475Z,78.71
2023-04-27T02:08:14.942Z,78.54
2023-04-27T02:10:41.412Z,78.31
2023-04-27T02:13:08.165Z,77.93
2023-04-27T02:15:35.405Z,78.14
2023-04-27T02:18:03.300Z,76.54
2023-04-27T02:20:31.146Z,79.45
2023-04-27T02:22:57.657Z,81.47
2023-04-27T02:25:24.164Z,80.10
2023-04-27T02:27:50.722Z,77.81
2023-04-27T02:30:17.700Z,78.20
2023-04-27T02:32:44.888Z,79.26
2023-04-27T02:35:11.546Z,78.88
2023-04-27T02:37:38.093Z,78.57
2023-04-27T02:40:07.744Z,79.75
2023-04-27T02:42:34.257Z,80.21
2023-04-27T02:45:00.899Z,80.04
2023-04-27T02:47:27.378Z,79.28
2023-04-27T02:49:53.962Z,79.62
2023-04-27T02:52:20.513Z,79.03
2023-04-27T02:54:47.016Z,77.98
2023-04-27T02:57:13.524Z,78.06
2023-04-27T02:59:40.016Z,77.77
2023-04-27T03:02:06.541Z,78.53
2023-04-27T03:04:33.057Z,78.56
2023-04-27T03:06:59.548Z,79.07
2023-04-27T03:09:26.070Z,79.12
2023-04-27T03:11:52.874Z,79.22
2023-04-27T03:14:19.344Z,80.05
2023-04-27T03:16:45.915Z,80.29
2023-04-27T03:19:12.713Z,80.51
2023-04-27T03:21:39.411Z,80.58
2023-04-27T03:24:06.117Z,80.85
2023-04-27T03:26:32.610Z,80.51
2023-04-27T03:28:59.080Z,80.20
2023-04-27T03:31:25.626Z,79.95
2023-04-27T03:33:52.192Z,80.90
2023-04-27T03:36:18.682Z,80.38
2023-04-27T03:38:45.398Z,81.52
2023-04-27T03:41:12.449Z,82.28
2023-04-27T03:43:38.984Z,82.22
2023-04-27T03:46:05.494Z,82.11
2023-04-27T03:48:32.059Z,82.34
2023-04-27T03:50:58.523Z,82.40
2023-04-27T03:53:25.060Z,82.09
2023-04-27T03:55:51.592Z,82.41
2023-04-27T03:58:18.234Z,82.29
2023-04-27T04:00:45.027Z,82.45
2023-04-27T04:03:11.874Z,82.39
2023-04-27T04:05:38.459Z,82.94
2023-04-27T04:08:04.974Z,82.57
2023-04-27T04:10:31.585Z,82.19
2023-04-27T04:12:58.081Z,81.92
2023-04-27T04:15:24.574Z,82.76
2023-04-27T04:17:51.193Z,83.66
2023-04-27T04:20:17.769Z,83.40
2023-04-27T04:22:44.325Z,82.72
2023-04-27T04:25:10.826Z,82.64
2023-04-27T04:27:37.613Z,82.40
2023-04-27T04:30:06.097Z,81.88
2023-04-27T04:32:33.737Z,81.93
2023-04-27T04:35:01.520Z,81.77
2023-04-27T04:37:28.239Z,82.57
2023-04-27T04:39:54.765Z,82.71
2023-04-27T04:42:21.416Z,82.21
2023-04-27T04:44:47.885Z,82.93
2023-04-27T04:47:14.441Z,82.07
2023-04-27T04:49:40.998Z,82.05
2023-04-27T04:52:07.499Z,81.69
2023-04-27T04:54:33.990Z,81.47
2023-04-27T04:57:02.228Z,81.21
2023-04-27T04:59:30.898Z,80.67
2023-04-27T05:01:58.624Z,80.19
2023-04-27T05:04:25.457Z,79.76
2023-04-27T05:06:52.924Z,79.84
2023-04-27T05:09:19.453Z,80.24
2023-04-27T05:11:45.907Z,80.46
2023-04-27T05:14:12.389Z,80.54
2023-04-27T05:16:39.013Z,80.78
2023-04-27T05:19:06.006Z,81.05
2023-04-27T05:21:33.530Z,81.05
2023-04-27T05:24:00.197Z,79.82
2023-04-27T05:26:26.688Z,79.46
2023-04-27T05:28:53.157Z,78.75
2023-04-27T05:31:19.737Z,77.77
2023-04-27T05:33:46.326Z,77.20
2023-04-27T05:36:12.797Z,77.63
2023-04-27T05:38:40.622Z,77.75
2023-04-27T05:41:07.516Z,77.82
2023-04-27T05:43:35.092Z,76.46
2023-04-27T05:46:01.782Z,76.06
2023-04-27T05:48:28.363Z,77.74
2023-04-27T05:51:04.035Z,75.78
2023-04-27T05:53:30.787Z,75.51
2023-04-27T05:55:59.204Z,75.42
2023-04-27T05:58:25.728Z,73.47
2023-04-27T06:00:53.639Z,72.62
2023-04-27T06:03:20.292Z,70.71
2023-04-27T06:05:46.845Z,71.63
2023-04-27T06:08:13.471Z,71.97
2023-04-27T06:10:40.097Z,71.12
2023-04-27T06:13:06.856Z,72.39
2023-04-27T06:15:33.383Z,71.06
2023-04-27T06:17:59.969Z,72.18
2023-04-27T06:20:27.094Z,72.51
2023-04-27T06:22:53.608Z,72.50
2023-04-27T06:25:20.123Z,72.02
2023-04-27T06:27:47.391Z,71.98
2023-04-27T06:30:14.006Z,71.29
2023-04-27T06:32:40.692Z,72.42
2023-04-27T06:35:07.470Z,71.15
2023-04-27T06:37:34.057Z,71.77
2023-04-27T06:40:00.577Z,71.52
2023-04-27T06:42:27.373Z,70.95
2023-04-27T06:44:55.826Z,71.25
2023-04-27T06:47:22.688Z,71.53
2023-04-27T06:49:49.873Z,70.32
2023-04-27T06:52:16.600Z,70.90
2023-04-27T06:54:43.106Z,70.72
2023-04-27T06:57:09.620Z,70.19
2023-04-27T06:59:36.124Z,69.17
2023-04-27T07:02:03.227Z,69.60
2023-04-27T07:04:30.259Z,69.48
2023-04-27T07:06:57.274Z,68.25
2023-04-27T07:09:27.480Z,67.63
2023-04-27T07:11:55.183Z,67.67
2023-04-27T07:14:22.059Z,67.86
2023-04-27T07:16:49.911Z,66.67
2023-04-27T07:19:16.751Z,67.19
2023-04-27T07:21:43.371Z,66.59
2023-04-27T07:24:10.133Z,65.61
2023-04-27T07:26:37.510Z,64.94
2023-04-27T07:29:11.130Z,64.78
2023-04-27T07:31:46.176Z,65.00
2023-04-27T07:34:12.888Z,63.98
2023-04-27T07:36:40.093Z,64.46
2023-04-27T07:39:08.047Z,63.13
2023-04-27T07:41:35.449Z,62.72
2023-04-27T07:44:02.841Z,63.00
2023-04-27T07:46:31.665Z,60.10
2023-04-27T07:48:59.729Z,62.84
2023-04-27T07:51:28.559Z,61.15
2023-04-27T07:53:55.702Z,61.71
2023-04-27T07:56:22.199Z,62.05
2023-04-27T07:58:48.695Z,61.72
2023-04-27T08:01:15.267Z,61.36
2023-04-27T08:03:42.063Z,59.74
2023-04-27T08:06:09.140Z,57.81
2023-04-27T08:08:36.286Z,59.83
2023-04-27T08:11:03.035Z,58.51
2023-04-27T08:13:29.497Z,57.42
2023-04-27T08:15:58.545Z,58.73
2023-04-27T08:18:25.988Z,55.79
2023-04-27T08:20:52.665Z,56.92
2023-04-27T08:23:19.265Z,54.42
2023-04-27T08:25:45.763Z,56.10
2023-04-27T08:28:13.144Z,57.40
2023-04-27T08:30:39.639Z,57.92
2023-04-27T08:33:06.215Z,55.04
2023-04-27T08:35:32.753Z,55.07
2023-04-27T08:37:59.269Z,57.19
2023-04-27T08:40:25.884Z,57.31
2023-04-27T08:42:57.386Z,59.84
2023-04-27T08:45:24.784Z,55.65
2023-04-27T08:47:51.446Z,54.16
2023-04-27T08:50:18.190Z,53.19
2023-04-27T08:52:48.116Z,54.66
2023-04-27T08:55:16.701Z,55.80
2023-04-27T08:57:54.051Z,53.30
2023-04-27T09:00:20.933Z,53.97
2023-04-27T09:02:48.097Z,56.68
2023-04-27T09:05:22.356Z,57.73
2023-04-27T09:08:05.285Z,55.54
2023-04-27T09:10:43.062Z,53.10
2023-04-27T09:13:09.505Z,55.59
2023-04-27T09:15:43.104Z,52.38
2023-04-27T09:18:21.159Z,54.27
2023-04-27T09:20:51.918Z,53.00
2023-04-27T09:23:31.357Z,52.20
2023-04-27T09:25:59.268Z,53.04
2023-04-27T09:28:27.661Z,51.94
2023-04-27T09:30:58.409Z,54.62
2023-04-27T09:33:26.089Z,52.75
2023-04-27T09:35:53.090Z,54.85
2023-04-27T09:38:20.147Z,53.11
2023-04-27T09:40:46.977Z,51.05
2023-04-27T09:43:13.520Z,50.42
2023-04-27T09:45:40.123Z,49.87
2023-04-27T09:48:06.692Z,53.11
2023-04-27T09:50:39.624Z,50.49
2023-04-27T09:53:07.731Z,45.89
2023-04-27T09:55:38.112Z,45.83
2023-04-27T09:58:35.876Z,42.61
2023-04-27T10:01:27.695Z,44.90
2023-04-27T10:04:19.145Z,43.93
2023-04-27T10:07:01.234Z,44.57
2023-04-27T10:09:31.688Z,47.28
2023-04-27T10:12:22.631Z,44.77
2023-04-27T10:14:55.888Z,44.24
2023-04-27T10:17:36.315Z,43.17
2023-04-27T10:20:07.515Z,43.26
2023-04-27T10:22:39.166Z,40.28
2023-04-27T10:25:24.394Z,39.21
2023-04-27T10:27:53.803Z,40.88
2023-04-27T10:30:21.075Z,42.14
2023-04-27T10:32:58.554Z,43.22
2023-04-27T10:35:44.346Z,42.79
2023-04-27T10:38:18.838Z,43.87
2023-04-27T10:40:46.464Z,42.72
2023-04-27T10:43:17.422Z,42.09
2023-04-27T10:45:44.277Z,43.09
2023-04-27T10:48:15.570Z,41.61
2023-04-27T10:50:42.603Z,38.76
2023-04-27T10:53:09.191Z,42.64
2023-04-27T10:55:36.150Z,42.23
2023-04-27T10:58:03.778Z,42.69
2023-04-27T11:00:36.693Z,42.79
2023-04-27T11:03:14.234Z,38.84
2023-04-27T11:05:43.084Z,38.89
2023-04-27T11:08:11.312Z,42.38
2023-04-27T11:10:43.257Z,44.69
2023-04-27T11:13:23.002Z,45.04
2023-04-27T11:15:54.376Z,41.61
2023-04-27T11:18:21.895Z,41.08
2023-04-27T11:20:52.992Z,39.43
2023-04-27T11:23:29.965Z,44.98
2023-04-27T11:25:56.690Z,43.84
2023-04-27T11:28:24.261Z,47.23
2023-04-27T11:31:00.635Z,38.92
2023-04-27T11:33:27.527Z,41.88
2023-04-27T11:35:54.068Z,37.57
2023-04-27T11:38:22.199Z,37.71
2023-04-27T11:41:07.596Z,40.35
2023-04-27T11:43:34.329Z,42.69
2023-04-27T11:46:04.567Z,38.78
2023-04-27T11:48:31.181Z,40.80
2023-04-27T11:50:59.146Z,45.88
2023-04-27T11:53:38.917Z,47.09
2023-04-27T11:56:10.632Z,43.93
2023-04-27T11:58:38.367Z,42.50
2023-04-27T12:01:05.105Z,44.41
2023-04-27T12:03:31.993Z,45.41
2023-04-27T12:06:11.657Z,37.91
2023-04-27T12:08:45.145Z,44.48
2023-04-27T12:11:11.602Z,39.95
2023-04-27T12:13:38.098Z,35.38
2023-04-27T12:16:05.161Z,41.90
2023-04-27T12:18:31.803Z,41.52
2023-04-27T12:21:02.811Z,38.54
2023-04-27T12:23:29.880Z,38.04
2023-04-27T12:25:56.489Z,37.11
2023-04-27T12:28:23.359Z,36.54
2023-04-27T12:30:50.082Z,39.08
2023-04-27T12:33:17.223Z,39.67
2023-04-27T12:35:43.745Z,41.17
2023-04-27T12:38:10.236Z,38.03
2023-04-27T12:40:36.762Z,37.97
2023-04-27T12:43:03.317Z,41.21
2023-04-27T12:45:30.198Z,38.14
2023-04-27T12:48:03.410Z,36.64
2023-04-27T12:50:33.715Z,39.71
2023-04-27T12:53:00.390Z,39.30
2023-04-27T12:55:33.701Z,39.07
2023-04-27T12:58:02.410Z,38.96
2023-04-27T13:00:29.886Z,37.49
2023-04-27T13:02:56.822Z,36.76
2023-04-27T13:05:23.556Z,39.21
2023-04-27T13:07:50.151Z,39.93
2023-04-27T13:10:16.695Z,39.25
2023-04-27T13:12:43.285Z,38.74
2023-04-27T13:15:10.222Z,39.93
2023-04-27T13:17:36.954Z,39.45
2023-04-27T13:20:03.972Z,39.93
2023-04-27T13:22:30.539Z,43.26
2023-04-27T13:24:57.016Z,37.28
2023-04-27T13:27:25.267Z,36.15
2023-04-27T13:29:51.811Z,36.56
2023-04-27T13:32:18.593Z,36.97
2023-04-27T13:34:45.245Z,36.56
2023-04-27T13:37:11.722Z,36.84
2023-04-27T13:39:38.343Z,38.57
2023-04-27T13:42:05.164Z,38.77
2023-04-27T13:44:31.869Z,39.50
2023-04-27T13:46:58.564Z,37.13
2023-04-27T13:49:25.960Z,37.72
2023-04-27T13:51:52.519Z,35.55
2023-04-27T13:54:19.921Z,38.65
2023-04-27T13:56:46.613Z,33.89
2023-04-27T13:59:13.313Z,34.01
2023-04-27T14:01:40.083Z,33.67
2023-04-27T14:04:08.231Z,32.92
2023-04-27T14:06:35.062Z,32.56
2023-04-27T14:09:01.540Z,36.35
2023-04-27T14:11:28.082Z,31.89
2023-04-27T14:13:54.566Z,34.65
2023-04-27T14:16:21.232Z,32.58
2023-04-27T14:18:47.714Z,34.48
2023-04-27T14:21:14.338Z,34.90
2023-04-27T14:23:40.916Z,32.17
2023-04-27T14:26:07.536Z,34.33
2023-04-27T14:28:34.558Z,35.01
2023-04-27T14:31:01.074Z,35.12
2023-04-27T14:33:27.589Z,36.30
2023-04-27T14:35:54.215Z,33.28
2023-04-27T14:38:20.725Z,34.29
2023-04-27T14:40:47.536Z,37.71
2023-04-27T14:43:14.109Z,33.61
2023-04-27T14:45:51.094Z,30.62
2023-04-27T14:48:19.442Z,30.50
2023-04-27T14:50:46.188Z,34.02
2023-04-27T14:53:12.682Z,34.98
2023-04-27T14:55:41.181Z,35.17
2023-04-27T14:58:07.735Z,35.24
2023-04-27T15:00:34.428Z,37.61
2023-04-27T15:03:01.417Z,34.59
2023-04-27T15:05:28.105Z,37.11
2023-04-27T15:07:54.574Z,36.76
2023-04-27T15:10:21.279Z,36.34
2023-04-27T15:12:47.826Z,36.33
2023-04-27T15:15:14.286Z,36.27
2023-04-27T15:17:41.597Z,35.70
2023-04-27T15:20:08.499Z,38.44
2023-04-27T15:22:34.982Z,38.47
2023-04-27T15:25:01.458Z,40.57
2023-04-27T15:27:27.963Z,40.40
2023-04-27T15:29:54.818Z,38.74
2023-04-27T15:32:23.276Z,38.49
2023-04-27T15:34:49.961Z,36.52
2023-04-27T15:37:16.475Z,37.65
2023-04-27T15:39:43.000Z,42.29
2023-04-27T15:42:09.484Z,38.76
2023-04-27T15:44:36.546Z,39.60
2023-04-27T15:47:03.738Z,37.27
2023-04-27T15:49:30.400Z,38.82
2023-04-27T15:51:56.884Z,39.89
2023-04-27T15:54:23.457Z,37.38
2023-04-27T15:56:49.940Z,35.77
2023-04-27T15:59:16.708Z,36.34
2023-04-27T16:01:43.663Z,37.65
2023-04-27T16:04:10.273Z,37.34
2023-04-27T16:06:37.114Z,35.52
2023-04-27T16:09:04.020Z,37.18
2023-04-27T16:11:31.397Z,35.77
2023-04-27T16:13:58.048Z,38.21
2023-04-27T16:16:24.648Z,38.21
2023-04-27T16:18:51.179Z,37.63
2023-04-27T16:21:17.655Z,39.97
2023-04-27T16:23:44.300Z,41.15
2023-04-27T16:26:11.123Z,41.84
2023-04-27T16:28:38.070Z,41.67
2023-04-27T16:31:04.659Z,39.71
2023-04-27T16:33:31.363Z,40.07
2023-04-27T16:35:57.948Z,42.88
2023-04-27T16:38:24.455Z,36.53
2023-04-27T16:40:52.532Z,40.61
2023-04-27T16:43:19.235Z,44.73
2023-04-27T16:45:45.945Z,42.33
2023-04-27T16:48:12.571Z,41.96
2023-04-27T16:50:39.155Z,39.72
2023-04-27T16:53:10.893Z,38.77
2023-04-27T16:55:37.428Z,38.53
2023-04-27T16:58:04.006Z,38.45
2023-04-27T17:00:30.566Z,41.89
2023-04-27T17:02:57.080Z,38.54
2023-04-27T17:05:23.678Z,44.09
2023-04-27T17:07:50.212Z,41.95
2023-04-27T17:10:17.395Z,45.32
2023-04-27T17:12:43.835Z,44.13
2023-04-27T17:15:10.769Z,44.27
2023-04-27T17:17:37.375Z,45.95
2023-04-27T17:20:06.311Z,48.00
2023-04-27T17:22:33.077Z,48.13
2023-04-27T17:24:59.598Z,51.01
2023-04-27T17:27:26.338Z,52.84
2023-04-27T17:29:53.889Z,51.97
2023-04-27T17:32:20.557Z,52.38
2023-04-27T17:34:47.195Z,55.23
2023-04-27T17:37:14.869Z,55.00
2023-04-27T17:39:41.449Z,51.25
2023-04-27T17:42:12.115Z,52.77
2023-04-27T17:44:41.125Z,49.76
2023-04-27T17:47:07.914Z,50.71
2023-04-27T17:49:34.413Z,52.35
2023-04-27T17:52:01.110Z,53.82
2023-04-27T17:54:29.948Z,55.20
2023-04-27T17:56:56.749Z,54.60
2023-04-27T17:59:23.888Z,57.84
2023-04-27T18:01:50.480Z,57.87
2023-04-27T18:04:17.129Z,60.99
2023-04-27T18:06:43.893Z,66.19
2023-04-27T18:09:10.435Z,66.72
2023-04-27T18:11:36.940Z,64.43
2023-04-27T18:14:04.278Z,64.70
2023-04-27T18:16:30.823Z,64.01
2023-04-27T18:18:57.289Z,61.59
2023-04-27T18:21:26.613Z,61.94
2023-04-27T18:23:53.174Z,62.16
2023-04-27T18:26:20.117Z,62.36
2023-04-27T18:28:46.611Z,61.22
2023-04-27T18:31:14.478Z,61.25
2023-04-27T18:33:41.372Z,62.42
2023-04-27T18:36:08.346Z,63.37
2023-04-27T18:38:34.822Z,64.44
2023-04-27T18:41:01.288Z,65.34
2023-04-27T18:43:27.928Z,65.80
2023-04-27T18:45:54.475Z,65.79
2023-04-27T18:48:21.348Z,63.79
2023-04-27T18:50:49.335Z,64.30
2023-04-27T18:53:16.025Z,66.56
2023-04-27T18:55:42.553Z,65.97
2023-04-27T18:58:09.160Z,66.29
2023-04-27T19:00:37.549Z,65.40
2023-04-27T19:03:04.712Z,64.56
2023-04-27T19:05:31.789Z,65.05
2023-04-27T19:07:58.269Z,65.64
2023-04-27T19:10:24.808Z,66.94
2023-04-27T19:12:51.489Z,67.06
2023-04-27T19:15:17.956Z,67.02
2023-04-27T19:17:44.568Z,68.20
2023-04-27T19:20:11.760Z,68.24
2023-04-27T19:22:38.262Z,68.42
2023-04-27T19:25:04.995Z,68.37
2023-04-27T19:27:31.644Z,69.39
2023-04-27T19:29:58.656Z,70.04
2023-04-27T19:32:26.814Z,71.39
2023-04-27T19:34:54.851Z,71.43
2023-04-27T19:37:21.873Z,72.15
2023-04-27T19:39:48.368Z,74.21
2023-04-27T19:42:15.396Z,73.30
2023-04-27T19:44:42.078Z,73.54
2023-04-27T19:47:10.777Z,74.45
2023-04-27T19:49:37.687Z,73.54
2023-04-27T19:52:05.135Z,73.85
2023-04-27T19:54:31.681Z,74.54
2023-04-27T19:56:58.322Z,76.18
2023-04-27T19:59:26.007Z,76.77
2023-04-27T20:01:52.549Z,76.59
2023-04-27T20:04:21.034Z,76.62
2023-04-27T20:06:48.734Z,77.20
2023-04-27T20:09:15.328Z,76.67
2023-04-27T20:11:41.843Z,75.86
2023-04-27T20:14:08.306Z,76.25
2023-04-27T20:16:34.816Z,76.38
2023-04-27T20:19:01.339Z,76.48
2023-04-27T20:21:28.054Z,77.62
2023-04-27T20:23:54.689Z,77.27
2023-04-27T20:26:21.343Z,78.49
2023-04-27T20:28:48.556Z,78.46
2023-04-27T20:31:15.507Z,78.30
2023-04-27T20:33:42.194Z,78.72
2023-04-27T20:36:16.581Z,78.46
2023-04-27T20:38:44.192Z,78.29
2023-04-27T20:41:12.238Z,78.36
2023-04-27T20:43:39.829Z,78.59
2023-04-27T20:46:07.495Z,78.86
2023-04-27T20:48:34.275Z,79.07
2023-04-27T20:51:00.759Z,79.57
2023-04-27T20:53:27.305Z,78.79
2023-04-27T20:55:53.750Z,79.29
2023-04-27T20:58:20.406Z,78.80
2023-04-27T21:00:47.008Z,79.40
2023-04-27T21:03:14.171Z,80.03
2023-04-27T21:05:41.397Z,81.88
2023-04-27T21:08:07.925Z,81.77
2023-04-27T21:10:35.434Z,82.72
2023-04-27T21:13:03.957Z,81.75
2023-04-27T21:15:30.600Z,80.91
2023-04-27T21:17:57.220Z,79.70
2023-04-27T21:20:23.745Z,79.87
2023-04-27T21:22:50.282Z,79.31
2023-04-27T21:25:16.753Z,81.03
2023-04-27T21:27:43.213Z,81.30
2023-04-27T21:30:10.357Z,81.42
2023-04-27T21:32:37.014Z,82.52
2023-04-27T21:35:03.650Z,82.47
2023-04-27T21:37:30.439Z,83.63
2023-04-27T21:39:56.919Z,83.96
2023-04-27T21:42:23.383Z,84.05
2023-04-27T21:44:49.896Z,84.71
2023-04-27T21:47:16.382Z,83.40
2023-04-27T21:49:42.838Z,81.95
2023-04-27T21:52:10.420Z,82.16
2023-04-27T21:54:36.966Z,81.99
2023-04-27T21:57:04.099Z,82.78
2023-04-27T21:59:30.975Z,84.19
2023-04-27T22:01:59.356Z,85.68
2023-04-27T22:04:26.161Z,84.70
2023-04-27T22:06:52.927Z,85.78
2023-04-27T22:09:19.513Z,85.85
2023-04-27T22:11:46.562Z,85.58
2023-04-27T22:14:13.208Z,84.11
2023-04-27T22:16:39.821Z,83.28
2023-04-27T22:19:06.849Z,83.31
2023-04-27T22:21:33.485Z,83.13
2023-04-27T22:23:59.986Z,83.15
2023-04-27T22:26:26.445Z,82.79
2023-04-27T22:28:53.283Z,82.95
2023-04-27T22:31:19.785Z,83.35
2023-04-27T22:33:46.288Z,82.12
2023-04-27T22:36:13.350Z,83.39
2023-04-27T22:38:39.790Z,84.00
2023-04-27T22:41:06.246Z,84.85
2023-04-27T22:43:32.730Z,84.50
2023-04-27T22:45:59.205Z,84.77
2023-04-27T22:48:25.910Z,85.34
2023-04-27T22:50:52.376Z,85.39
2023-04-27T22:53:18.824Z,84.97
2023-04-27T22:55:45.311Z,83.72
2023-04-27T22:58:11.863Z,83.79
2023-04-27T23:00:38.467Z,83.75
2023-04-27T23:03:05.247Z,84.56
2023-04-27T23:05:32.023Z,84.76
2023-04-27T23:07:59.766Z,85.25
2023-04-27T23:10:26.771Z,84.99
2023-04-27T23:12:54.881Z,85.07
2023-04-27T23:15:23.814Z,84.65
2023-04-27T23:17:50.373Z,84.43
2023-04-27T23:22:51.402Z,84.28
2023-04-27T23:25:17.949Z,84.03
2023-04-27T23:27:44.402Z,83.02
2023-04-27T23:30:11.585Z,82.92
2023-04-27T23:32:38.273Z,82.33
2023-04-27T23:35:05.654Z,83.60
2023-04-27T23:37:32.156Z,84.31
2023-04-27T23:39:59.079Z,84.54
2023-04-27T23:42:25.554Z,83.77
2023-04-27T23:44:52.997Z,83.93
2023-04-27T23:47:19.591Z,84.65
2023-04-27T23:49:46.049Z,84.38
2023-04-27T23:52:12.530Z,84.78
2023-04-27T23:54:39.011Z,84.54
2023-04-27T23:57:05.582Z,84.65
2023-04-27T23:59:35.390Z,84.44
